sensor_id;sensor_type;location;lat;lon;timestamp;pressure;altitude;pressure_sealevel;temperature;humidity
22241;BME280;11289;52.524;13.694;2023-05-29T00:01:26;101373.25;;;15.80;52.19
22241;BME280;11289;52.524;13.694;2023-05-29T00:03:52;101378.53;;;15.81;52.21
22241;BME280;11289;52.524;13.694;2023-05-29T00:06:21;101369.72;;;15.71;52.54
22241;BME280;11289;52.524;13.694;2023-05-29T00:08:47;101368.31;;;15.64;52.48
22241;BME280;11289;52.524;13.694;2023-05-29T00:11:13;101375.06;;;15.63;52.28
22241;BME280;11289;52.524;13.694;2023-05-29T00:13:39;101375.31;;;15.58;52.34
22241;BME280;11289;52.524;13.694;2023-05-29T00:16:06;101370.38;;;15.55;52.24
22241;BME280;11289;52.524;13.694;2023-05-29T00:18:32;101369.31;;;15.47;52.32
22241;BME280;11289;52.524;13.694;2023-05-29T00:20:58;101369.56;;;15.42;52.44
22241;BME280;11289;52.524;13.694;2023-05-29T00:23:24;101377.81;;;15.39;52.73
22241;BME280;11289;52.524;13.694;2023-05-29T00:25:50;101369.50;;;15.30;52.99
22241;BME280;11289;52.524;13.694;2023-05-29T00:28:16;101377.91;;;15.30;52.93
22241;BME280;11289;52.524;13.694;2023-05-29T00:30:42;101370.91;;;15.24;53.04
22241;BME280;11289;52.524;13.694;2023-05-29T00:33:08;101365.50;;;15.19;52.99
22241;BME280;11289;52.524;13.694;2023-05-29T00:35:34;101374.25;;;15.17;53.04
22241;BME280;11289;52.524;13.694;2023-05-29T00:38:00;101376.78;;;15.10;53.07
22241;BME280;11289;52.524;13.694;2023-05-29T00:40:26;101380.25;;;15.07;53.03
22241;BME280;11289;52.524;13.694;2023-05-29T00:42:52;101373.03;;;15.06;52.95
22241;BME280;11289;52.524;13.694;2023-05-29T00:45:18;101370.31;;;14.97;53.24
22241;BME280;11289;52.524;13.694;2023-05-29T00:47:45;101384.28;;;14.97;53.35
22241;BME280;11289;52.524;13.694;2023-05-29T00:50:13;101380.06;;;14.91;53.50
22241;BME280;11289;52.524;13.694;2023-05-29T00:52:41;101379.94;;;14.87;53.30
22241;BME280;11289;52.524;13.694;2023-05-29T00:55:08;101373.41;;;14.83;53.50
22241;BME280;11289;52.524;13.694;2023-05-29T00:57:35;101388.19;;;14.84;53.40
22241;BME280;11289;52.524;13.694;2023-05-29T01:00:06;101379.19;;;14.78;53.62
22241;BME280;11289;52.524;13.694;2023-05-29T01:02:40;101382.47;;;14.80;53.54
22241;BME280;11289;52.524;13.694;2023-05-29T01:05:11;101376.28;;;14.74;53.72
22241;BME280;11289;52.524;13.694;2023-05-29T01:07:37;101383.47;;;14.75;53.60
22241;BME280;11289;52.524;13.694;2023-05-29T01:10:05;101377.28;;;14.70;53.80
22241;BME280;11289;52.524;13.694;2023-05-29T01:12:38;101367.31;;;14.60;53.77
22241;BME280;11289;52.524;13.694;2023-05-29T01:20:52;101372.63;;;14.53;53.75
22241;BME280;11289;52.524;13.694;2023-05-29T01:28:42;101377.75;;;14.42;54.13
22241;BME280;11289;52.524;13.694;2023-05-29T01:31:10;101383.69;;;14.40;54.20
22241;BME280;11289;52.524;13.694;2023-05-29T01:33:41;101389.00;;;14.33;54.63
22241;BME280;11289;52.524;13.694;2023-05-29T01:36:10;101379.19;;;14.27;54.15
22241;BME280;11289;52.524;13.694;2023-05-29T01:38:36;101382.31;;;14.25;54.73
22241;BME280;11289;52.524;13.694;2023-05-29T01:41:03;101386.13;;;14.21;54.42
22241;BME280;11289;52.524;13.694;2023-05-29T01:43:29;101387.28;;;14.20;54.49
22241;BME280;11289;52.524;13.694;2023-05-29T01:45:57;101382.38;;;14.17;54.38
22241;BME280;11289;52.524;13.694;2023-05-29T01:48:23;101376.00;;;14.07;54.57
22241;BME280;11289;52.524;13.694;2023-05-29T01:50:50;101392.09;;;14.10;54.43
22241;BME280;11289;52.524;13.694;2023-05-29T01:53:16;101392.25;;;14.05;54.82
22241;BME280;11289;52.524;13.694;2023-05-29T01:55:42;101386.22;;;14.03;54.62
22241;BME280;11289;52.524;13.694;2023-05-29T01:58:08;101386.88;;;14.00;54.83
22241;BME280;11289;52.524;13.694;2023-05-29T02:00:36;101395.59;;;13.99;54.89
22241;BME280;11289;52.524;13.694;2023-05-29T02:03:02;101386.09;;;13.91;54.93
22241;BME280;11289;52.524;13.694;2023-05-29T02:05:28;101381.69;;;13.90;54.68
22241;BME280;11289;52.524;13.694;2023-05-29T02:07:54;101385.31;;;13.82;54.99
22241;BME280;11289;52.524;13.694;2023-05-29T02:10:19;101387.94;;;13.78;54.97
22241;BME280;11289;52.524;13.694;2023-05-29T02:12:45;101387.47;;;13.76;55.08
22241;BME280;11289;52.524;13.694;2023-05-29T02:15:11;101389.44;;;13.75;54.90
22241;BME280;11289;52.524;13.694;2023-05-29T02:17:37;101401.63;;;13.71;55.41
22241;BME280;11289;52.524;13.694;2023-05-29T02:20:04;101401.44;;;13.67;55.15
22241;BME280;11289;52.524;13.694;2023-05-29T02:22:30;101398.19;;;13.65;55.36
22241;BME280;11289;52.524;13.694;2023-05-29T02:24:56;101399.31;;;13.64;55.40
22241;BME280;11289;52.524;13.694;2023-05-29T02:27:22;101395.09;;;13.58;55.80
22241;BME280;11289;52.524;13.694;2023-05-29T02:29:48;101395.25;;;13.53;55.68
22241;BME280;11289;52.524;13.694;2023-05-29T02:32:14;101389.53;;;13.49;55.74
22241;BME280;11289;52.524;13.694;2023-05-29T02:34:40;101395.44;;;13.48;55.83
22241;BME280;11289;52.524;13.694;2023-05-29T02:37:06;101390.03;;;13.43;56.12
22241;BME280;11289;52.524;13.694;2023-05-29T02:39:32;101389.38;;;13.37;55.93
22241;BME280;11289;52.524;13.694;2023-05-29T02:41:58;101395.47;;;13.39;55.90
22241;BME280;11289;52.524;13.694;2023-05-29T02:44:23;101394.28;;;13.31;56.30
22241;BME280;11289;52.524;13.694;2023-05-29T02:46:50;101392.66;;;13.30;56.45
22241;BME280;11289;52.524;13.694;2023-05-29T02:49:15;101403.97;;;13.34;56.23
22241;BME280;11289;52.524;13.694;2023-05-29T02:51:41;101392.47;;;13.27;56.45
22241;BME280;11289;52.524;13.694;2023-05-29T02:54:07;101393.28;;;13.27;56.57
22241;BME280;11289;52.524;13.694;2023-05-29T02:56:33;101391.34;;;13.19;57.10
22241;BME280;11289;52.524;13.694;2023-05-29T02:59:00;101396.44;;;13.17;56.92
22241;BME280;11289;52.524;13.694;2023-05-29T03:01:26;101388.41;;;13.06;57.00
22241;BME280;11289;52.524;13.694;2023-05-29T03:03:52;101395.63;;;13.07;56.99
22241;BME280;11289;52.524;13.694;2023-05-29T03:06:18;101408.25;;;13.05;57.15
22241;BME280;11289;52.524;13.694;2023-05-29T03:08:44;101400.88;;;13.00;57.44
22241;BME280;11289;52.524;13.694;2023-05-29T03:11:11;101418.59;;;13.04;57.47
22241;BME280;11289;52.524;13.694;2023-05-29T03:13:38;101414.00;;;13.00;57.65
22241;BME280;11289;52.524;13.694;2023-05-29T03:16:04;101401.53;;;12.88;57.30
22241;BME280;11289;52.524;13.694;2023-05-29T03:18:30;101427.75;;;13.05;57.63
22241;BME280;11289;52.524;13.694;2023-05-29T03:20:56;101421.84;;;13.06;57.74
22241;BME280;11289;52.524;13.694;2023-05-29T03:23:22;101419.25;;;13.01;57.71
22241;BME280;11289;52.524;13.694;2023-05-29T03:25:48;101413.34;;;12.94;57.78
22241;BME280;11289;52.524;13.694;2023-05-29T03:28:14;101426.44;;;13.02;58.10
22241;BME280;11289;52.524;13.694;2023-05-29T03:30:40;101424.97;;;12.96;57.94
22241;BME280;11289;52.524;13.694;2023-05-29T03:33:06;101425.31;;;12.95;57.96
22241;BME280;11289;52.524;13.694;2023-05-29T03:35:33;101408.44;;;12.91;58.19
22241;BME280;11289;52.524;13.694;2023-05-29T03:37:59;101423.84;;;12.97;58.45
22241;BME280;11289;52.524;13.694;2023-05-29T03:40:25;101423.97;;;12.92;58.83
22241;BME280;11289;52.524;13.694;2023-05-29T03:42:51;101421.84;;;12.89;58.65
22241;BME280;11289;52.524;13.694;2023-05-29T03:45:17;101424.16;;;12.87;58.77
22241;BME280;11289;52.524;13.694;2023-05-29T03:47:43;101413.81;;;12.79;58.52
22241;BME280;11289;52.524;13.694;2023-05-29T03:50:09;101413.50;;;12.80;58.98
22241;BME280;11289;52.524;13.694;2023-05-29T03:52:35;101421.38;;;12.87;59.22
22241;BME280;11289;52.524;13.694;2023-05-29T03:55:02;101426.63;;;12.88;59.34
22241;BME280;11289;52.524;13.694;2023-05-29T03:57:28;101433.31;;;12.87;59.21
22241;BME280;11289;52.524;13.694;2023-05-29T03:59:54;101422.34;;;12.82;59.48
22241;BME280;11289;52.524;13.694;2023-05-29T04:02:20;101431.88;;;12.90;59.23
22241;BME280;11289;52.524;13.694;2023-05-29T04:04:46;101433.00;;;12.89;59.21
22241;BME280;11289;52.524;13.694;2023-05-29T04:07:13;101433.50;;;12.91;59.22
22241;BME280;11289;52.524;13.694;2023-05-29T04:09:39;101443.66;;;12.96;59.32
22241;BME280;11289;52.524;13.694;2023-05-29T04:12:05;101431.53;;;12.92;59.29
22241;BME280;11289;52.524;13.694;2023-05-29T04:14:31;101440.03;;;13.04;59.19
22241;BME280;11289;52.524;13.694;2023-05-29T04:16:57;101441.03;;;13.08;59.09
22241;BME280;11289;52.524;13.694;2023-05-29T04:19:23;101430.88;;;13.03;59.39
22241;BME280;11289;52.524;13.694;2023-05-29T04:21:49;101435.97;;;13.10;59.25
22241;BME280;11289;52.524;13.694;2023-05-29T04:24:15;101432.66;;;13.08;59.92
22241;BME280;11289;52.524;13.694;2023-05-29T04:26:41;101446.28;;;13.10;59.72
22241;BME280;11289;52.524;13.694;2023-05-29T04:29:11;101445.16;;;13.11;59.69
22241;BME280;11289;52.524;13.694;2023-05-29T04:31:38;101441.22;;;13.12;59.95
22241;BME280;11289;52.524;13.694;2023-05-29T04:34:04;101437.44;;;13.07;59.97
22241;BME280;11289;52.524;13.694;2023-05-29T04:36:30;101445.31;;;13.14;59.83
22241;BME280;11289;52.524;13.694;2023-05-29T04:38:58;101445.47;;;13.18;59.56
22241;BME280;11289;52.524;13.694;2023-05-29T04:41:25;101440.38;;;13.11;59.86
22241;BME280;11289;52.524;13.694;2023-05-29T04:43:55;101448.25;;;13.18;60.43
22241;BME280;11289;52.524;13.694;2023-05-29T04:46:23;101450.25;;;13.26;60.44
22241;BME280;11289;52.524;13.694;2023-05-29T04:48:50;101449.25;;;13.31;60.33
22241;BME280;11289;52.524;13.694;2023-05-29T04:51:20;101452.22;;;13.34;60.24
22241;BME280;11289;52.524;13.694;2023-05-29T04:53:47;101451.38;;;13.43;60.16
22241;BME280;11289;52.524;13.694;2023-05-29T04:56:17;101454.97;;;13.52;59.61
22241;BME280;11289;52.524;13.694;2023-05-29T04:58:44;101441.03;;;13.52;59.81
22241;BME280;11289;52.524;13.694;2023-05-29T05:01:10;101441.53;;;13.54;59.84
22241;BME280;11289;52.524;13.694;2023-05-29T05:03:40;101439.25;;;13.47;60.08
22241;BME280;11289;52.524;13.694;2023-05-29T05:06:06;101443.00;;;13.51;60.18
22241;BME280;11289;52.524;13.694;2023-05-29T05:08:33;101448.13;;;13.49;60.56
22241;BME280;11289;52.524;13.694;2023-05-29T05:11:00;101450.06;;;13.49;60.25
22241;BME280;11289;52.524;13.694;2023-05-29T05:13:26;101445.47;;;13.53;59.97
22241;BME280;11289;52.524;13.694;2023-05-29T05:15:53;101446.25;;;13.62;59.96
22241;BME280;11289;52.524;13.694;2023-05-29T05:18:19;101453.63;;;13.75;60.26
22241;BME280;11289;52.524;13.694;2023-05-29T05:20:45;101451.66;;;13.76;60.28
22241;BME280;11289;52.524;13.694;2023-05-29T05:23:12;101446.72;;;13.82;59.43
22241;BME280;11289;52.524;13.694;2023-05-29T05:25:38;101452.75;;;13.92;59.55
22241;BME280;11289;52.524;13.694;2023-05-29T05:28:04;101454.38;;;14.02;59.39
22241;BME280;11289;52.524;13.694;2023-05-29T05:30:31;101460.25;;;14.09;59.40
22241;BME280;11289;52.524;13.694;2023-05-29T05:32:57;101459.69;;;14.25;59.13
22241;BME280;11289;52.524;13.694;2023-05-29T05:35:24;101450.81;;;14.23;59.03
22241;BME280;11289;52.524;13.694;2023-05-29T05:37:50;101432.13;;;14.23;59.05
22241;BME280;11289;52.524;13.694;2023-05-29T05:40:16;101453.81;;;14.48;58.71
22241;BME280;11289;52.524;13.694;2023-05-29T05:42:42;101436.97;;;14.65;58.57
22241;BME280;11289;52.524;13.694;2023-05-29T05:45:08;101456.78;;;15.02;57.49
22241;BME280;11289;52.524;13.694;2023-05-29T05:47:34;101450.25;;;15.19;56.20
22241;BME280;11289;52.524;13.694;2023-05-29T05:50:00;101464.88;;;15.37;55.20
22241;BME280;11289;52.524;13.694;2023-05-29T05:52:27;101467.31;;;15.60;55.50
22241;BME280;11289;52.524;13.694;2023-05-29T05:54:56;101465.69;;;15.92;54.65
22241;BME280;11289;52.524;13.694;2023-05-29T05:57:22;101473.66;;;16.27;53.53
22241;BME280;11289;52.524;13.694;2023-05-29T05:59:48;101464.91;;;16.53;52.61
22241;BME280;11289;52.524;13.694;2023-05-29T06:02:14;101472.94;;;16.80;51.18
22241;BME280;11289;52.524;13.694;2023-05-29T06:04:40;101486.59;;;17.06;49.90
22241;BME280;11289;52.524;13.694;2023-05-29T06:07:06;101454.25;;;16.96;51.12
22241;BME280;11289;52.524;13.694;2023-05-29T06:09:32;101458.72;;;17.26;48.73
22241;BME280;11289;52.524;13.694;2023-05-29T06:11:58;101453.41;;;17.36;48.96
22241;BME280;11289;52.524;13.694;2023-05-29T06:14:24;101483.25;;;17.85;47.43
22241;BME280;11289;52.524;13.694;2023-05-29T06:16:51;101481.94;;;18.11;46.87
22241;BME280;11289;52.524;13.694;2023-05-29T06:19:17;101473.78;;;18.06;46.83
22241;BME280;11289;52.524;13.694;2023-05-29T06:21:43;101480.31;;;18.42;46.74
22241;BME280;11289;52.524;13.694;2023-05-29T06:24:09;101479.09;;;18.75;45.28
22241;BME280;11289;52.524;13.694;2023-05-29T06:26:36;101492.56;;;19.01;44.36
22241;BME280;11289;52.524;13.694;2023-05-29T06:29:03;101491.16;;;19.11;43.19
22241;BME280;11289;52.524;13.694;2023-05-29T06:31:29;101490.44;;;19.14;43.45
22241;BME280;11289;52.524;13.694;2023-05-29T06:33:55;101480.06;;;19.18;42.67
22241;BME280;11289;52.524;13.694;2023-05-29T06:36:21;101468.41;;;19.20;43.10
22241;BME280;11289;52.524;13.694;2023-05-29T06:38:47;101495.78;;;19.39;43.44
22241;BME280;11289;52.524;13.694;2023-05-29T06:41:16;101485.59;;;19.73;41.22
22241;BME280;11289;52.524;13.694;2023-05-29T06:43:42;101496.03;;;19.92;41.41
22241;BME280;11289;52.524;13.694;2023-05-29T06:46:08;101489.16;;;19.90;42.02
22241;BME280;11289;52.524;13.694;2023-05-29T06:48:35;101495.41;;;20.03;40.58
22241;BME280;11289;52.524;13.694;2023-05-29T06:51:01;101501.13;;;20.06;40.67
22241;BME280;11289;52.524;13.694;2023-05-29T06:53:29;101498.44;;;20.37;41.12
22241;BME280;11289;52.524;13.694;2023-05-29T06:55:55;101492.81;;;20.63;39.56
22241;BME280;11289;52.524;13.694;2023-05-29T06:58:21;101495.44;;;21.02;38.82
22241;BME280;11289;52.524;13.694;2023-05-29T07:00:47;101489.97;;;21.17;38.07
22241;BME280;11289;52.524;13.694;2023-05-29T07:03:13;101492.88;;;20.94;38.21
22241;BME280;11289;52.524;13.694;2023-05-29T07:05:39;101507.25;;;20.81;38.22
22241;BME280;11289;52.524;13.694;2023-05-29T07:08:05;101501.75;;;20.92;38.96
22241;BME280;11289;52.524;13.694;2023-05-29T07:10:33;101489.94;;;21.13;38.41
22241;BME280;11289;52.524;13.694;2023-05-29T07:12:59;101500.13;;;21.52;38.04
22241;BME280;11289;52.524;13.694;2023-05-29T07:15:25;101505.25;;;21.77;37.35
22241;BME280;11289;52.524;13.694;2023-05-29T07:17:51;101505.56;;;21.68;37.67
22241;BME280;11289;52.524;13.694;2023-05-29T07:20:16;101505.78;;;21.86;37.65
22241;BME280;11289;52.524;13.694;2023-05-29T07:22:44;101515.16;;;21.97;36.68
22241;BME280;11289;52.524;13.694;2023-05-29T07:25:10;101515.44;;;21.85;37.39
22241;BME280;11289;52.524;13.694;2023-05-29T07:27:36;101506.91;;;21.78;37.59
22241;BME280;11289;52.524;13.694;2023-05-29T07:30:03;101498.09;;;21.83;37.81
22241;BME280;11289;52.524;13.694;2023-05-29T07:32:31;101520.31;;;21.84;36.70
22241;BME280;11289;52.524;13.694;2023-05-29T07:34:57;101514.72;;;21.58;36.89
22241;BME280;11289;52.524;13.694;2023-05-29T07:37:23;101516.09;;;21.71;37.19
22241;BME280;11289;52.524;13.694;2023-05-29T07:39:49;101503.00;;;21.25;36.58
22241;BME280;11289;52.524;13.694;2023-05-29T07:42:15;101504.25;;;21.58;36.94
22241;BME280;11289;52.524;13.694;2023-05-29T07:44:41;101522.69;;;21.82;36.64
22241;BME280;11289;52.524;13.694;2023-05-29T07:47:11;101524.25;;;21.80;36.29
22241;BME280;11289;52.524;13.694;2023-05-29T07:49:37;101523.13;;;21.84;36.61
22241;BME280;11289;52.524;13.694;2023-05-29T07:52:03;101523.31;;;22.06;36.59
22241;BME280;11289;52.524;13.694;2023-05-29T07:54:33;101541.00;;;22.33;36.10
22241;BME280;11289;52.524;13.694;2023-05-29T07:56:59;101527.09;;;22.17;34.35
22241;BME280;11289;52.524;13.694;2023-05-29T07:59:26;101531.22;;;22.27;35.56
22241;BME280;11289;52.524;13.694;2023-05-29T08:01:52;101536.09;;;22.71;35.63
22241;BME280;11289;52.524;13.694;2023-05-29T08:04:18;101539.31;;;22.73;34.57
22241;BME280;11289;52.524;13.694;2023-05-29T08:06:43;101535.97;;;22.60;36.42
22241;BME280;11289;52.524;13.694;2023-05-29T08:09:10;101535.34;;;22.85;33.92
22241;BME280;11289;52.524;13.694;2023-05-29T08:11:36;101527.84;;;22.52;33.98
22241;BME280;11289;52.524;13.694;2023-05-29T08:14:03;101531.63;;;22.29;35.07
22241;BME280;11289;52.524;13.694;2023-05-29T08:16:29;101536.97;;;22.34;34.02
22241;BME280;11289;52.524;13.694;2023-05-29T08:18:55;101532.38;;;22.64;35.04
22241;BME280;11289;52.524;13.694;2023-05-29T08:21:21;101529.50;;;23.19;34.07
22241;BME280;11289;52.524;13.694;2023-05-29T08:23:47;101531.78;;;23.69;33.75
22241;BME280;11289;52.524;13.694;2023-05-29T08:26:13;101529.78;;;23.03;33.61
22241;BME280;11289;52.524;13.694;2023-05-29T08:28:39;101517.19;;;22.90;33.30
22241;BME280;11289;52.524;13.694;2023-05-29T08:31:06;101529.19;;;23.35;34.30
22241;BME280;11289;52.524;13.694;2023-05-29T08:33:32;101509.13;;;23.76;33.30
22241;BME280;11289;52.524;13.694;2023-05-29T08:35:59;101524.56;;;23.90;30.59
22241;BME280;11289;52.524;13.694;2023-05-29T08:38:25;101503.13;;;23.92;31.09
22241;BME280;11289;52.524;13.694;2023-05-29T08:40:51;101521.38;;;24.45;31.37
22241;BME280;11289;52.524;13.694;2023-05-29T08:43:21;101529.13;;;24.74;31.09
22241;BME280;11289;52.524;13.694;2023-05-29T08:45:48;101503.56;;;24.81;30.60
22241;BME280;11289;52.524;13.694;2023-05-29T08:48:18;101518.13;;;25.01;30.39
22241;BME280;11289;52.524;13.694;2023-05-29T08:50:45;101517.63;;;25.35;30.50
22241;BME280;11289;52.524;13.694;2023-05-29T08:53:15;101524.63;;;24.94;30.30
22241;BME280;11289;52.524;13.694;2023-05-29T08:55:41;101498.69;;;24.74;31.23
22241;BME280;11289;52.524;13.694;2023-05-29T08:58:07;101523.41;;;24.92;30.40
22241;BME280;11289;52.524;13.694;2023-05-29T09:00:34;101503.94;;;24.04;31.80
22241;BME280;11289;52.524;13.694;2023-05-29T09:03:00;101510.88;;;24.31;31.04
22241;BME280;11289;52.524;13.694;2023-05-29T09:05:27;101527.09;;;24.60;31.66
22241;BME280;11289;52.524;13.694;2023-05-29T09:07:54;101536.31;;;25.18;31.51
22241;BME280;11289;52.524;13.694;2023-05-29T09:10:20;101509.06;;;25.49;30.24
22241;BME280;11289;52.524;13.694;2023-05-29T09:12:48;101526.94;;;26.20;29.85
22241;BME280;11289;52.524;13.694;2023-05-29T09:15:17;101523.31;;;26.69;28.84
22241;BME280;11289;52.524;13.694;2023-05-29T09:17:57;101531.19;;;25.87;28.14
22241;BME280;11289;52.524;13.694;2023-05-29T09:20:24;101521.34;;;26.06;28.30
22241;BME280;11289;52.524;13.694;2023-05-29T09:23:01;101525.50;;;26.47;28.33
22241;BME280;11289;52.524;13.694;2023-05-29T09:25:29;101524.44;;;26.79;27.56
22241;BME280;11289;52.524;13.694;2023-05-29T09:28:02;101524.00;;;27.18;27.78
22241;BME280;11289;52.524;13.694;2023-05-29T09:33:01;101534.69;;;27.49;26.71
22241;BME280;11289;52.524;13.694;2023-05-29T09:35:48;101522.56;;;27.41;27.38
22241;BME280;11289;52.524;13.694;2023-05-29T09:38:18;101531.00;;;27.79;25.56
22241;BME280;11289;52.524;13.694;2023-05-29T09:40:46;101543.75;;;27.02;26.56
22241;BME280;11289;52.524;13.694;2023-05-29T09:43:14;101546.44;;;26.78;26.63
22241;BME280;11289;52.524;13.694;2023-05-29T09:45:44;101543.75;;;26.56;27.01
22241;BME280;11289;52.524;13.694;2023-05-29T09:48:25;101539.50;;;26.27;27.22
22241;BME280;11289;52.524;13.694;2023-05-29T09:50:52;101530.78;;;25.88;27.53
22241;BME280;11289;52.524;13.694;2023-05-29T09:53:21;101530.31;;;26.01;27.47
22241;BME280;11289;52.524;13.694;2023-05-29T09:55:51;101529.22;;;26.40;26.84
22241;BME280;11289;52.524;13.694;2023-05-29T09:58:21;101531.00;;;26.75;26.88
22241;BME280;11289;52.524;13.694;2023-05-29T10:00:48;101517.47;;;26.83;26.17
22241;BME280;11289;52.524;13.694;2023-05-29T10:03:14;101525.00;;;27.04;26.35
22241;BME280;11289;52.524;13.694;2023-05-29T10:05:42;101519.06;;;26.88;26.55
22241;BME280;11289;52.524;13.694;2023-05-29T10:08:12;101527.16;;;26.89;26.96
22241;BME280;11289;52.524;13.694;2023-05-29T10:10:45;101520.78;;;27.16;26.70
22241;BME280;11289;52.524;13.694;2023-05-29T10:13:14;101509.63;;;27.63;25.69
22241;BME280;11289;52.524;13.694;2023-05-29T10:15:41;101513.47;;;27.15;25.59
22241;BME280;11289;52.524;13.694;2023-05-29T10:18:32;101518.69;;;26.82;26.36
22241;BME280;11289;52.524;13.694;2023-05-29T10:21:01;101516.72;;;27.17;25.63
22241;BME280;11289;52.524;13.694;2023-05-29T10:23:29;101528.66;;;26.59;26.79
22241;BME280;11289;52.524;13.694;2023-05-29T10:26:06;101523.50;;;26.44;26.70
22241;BME280;11289;52.524;13.694;2023-05-29T10:28:36;101509.75;;;26.35;26.83
22241;BME280;11289;52.524;13.694;2023-05-29T10:31:10;101522.41;;;26.30;26.98
22241;BME280;11289;52.524;13.694;2023-05-29T10:34:02;101513.91;;;26.75;27.25
22241;BME280;11289;52.524;13.694;2023-05-29T10:36:38;101512.69;;;27.11;26.39
22241;BME280;11289;52.524;13.694;2023-05-29T10:39:07;101510.41;;;27.37;25.42
22241;BME280;11289;52.524;13.694;2023-05-29T10:41:34;101510.09;;;27.27;25.72
22241;BME280;11289;52.524;13.694;2023-05-29T10:49:26;101505.94;;;27.67;24.97
22241;BME280;11289;52.524;13.694;2023-05-29T10:51:52;101509.31;;;27.23;24.89
22241;BME280;11289;52.524;13.694;2023-05-29T10:54:23;101499.25;;;26.73;25.34
22241;BME280;11289;52.524;13.694;2023-05-29T10:56:57;101516.81;;;27.10;25.01
22241;BME280;11289;52.524;13.694;2023-05-29T10:59:24;101499.53;;;26.86;26.34
22241;BME280;11289;52.524;13.694;2023-05-29T11:01:55;101499.22;;;27.50;26.24
22241;BME280;11289;52.524;13.694;2023-05-29T11:06:47;101493.53;;;28.08;24.45
22241;BME280;11289;52.524;13.694;2023-05-29T11:14:45;101494.28;;;28.63;23.86
22241;BME280;11289;52.524;13.694;2023-05-29T11:20:07;101484.91;;;28.82;22.73
22241;BME280;11289;52.524;13.694;2023-05-29T11:25:25;101477.91;;;29.47;22.69
22241;BME280;11289;52.524;13.694;2023-05-29T11:27:51;101483.19;;;29.29;22.97
22241;BME280;11289;52.524;13.694;2023-05-29T11:30:20;101486.81;;;29.69;23.18
22241;BME280;11289;52.524;13.694;2023-05-29T11:32:47;101467.84;;;29.76;22.14
22241;BME280;11289;52.524;13.694;2023-05-29T11:35:14;101488.41;;;29.54;22.28
22241;BME280;11289;52.524;13.694;2023-05-29T11:37:42;101483.59;;;29.67;22.09
22241;BME280;11289;52.524;13.694;2023-05-29T11:40:10;101465.81;;;29.76;20.31
22241;BME280;11289;52.524;13.694;2023-05-29T11:42:41;101483.59;;;30.04;20.51
22241;BME280;11289;52.524;13.694;2023-05-29T11:45:17;101474.28;;;29.63;20.29
22241;BME280;11289;52.524;13.694;2023-05-29T11:47:54;101481.16;;;30.02;20.76
22241;BME280;11289;52.524;13.694;2023-05-29T11:50:22;101482.44;;;30.51;20.45
22241;BME280;11289;52.524;13.694;2023-05-29T11:52:49;101485.28;;;30.67;20.33
22241;BME280;11289;52.524;13.694;2023-05-29T11:55:16;101474.28;;;30.66;20.70
22241;BME280;11289;52.524;13.694;2023-05-29T11:57:41;101483.34;;;30.77;20.54
22241;BME280;11289;52.524;13.694;2023-05-29T12:00:11;101463.56;;;29.67;21.64
22241;BME280;11289;52.524;13.694;2023-05-29T12:02:38;101467.94;;;29.92;21.59
22241;BME280;11289;52.524;13.694;2023-05-29T12:05:05;101468.63;;;29.60;21.38
22241;BME280;11289;52.524;13.694;2023-05-29T12:07:33;101469.31;;;28.67;22.17
22241;BME280;11289;52.524;13.694;2023-05-29T12:10:13;101457.31;;;28.76;23.06
22241;BME280;11289;52.524;13.694;2023-05-29T12:12:47;101473.88;;;29.05;22.12
22241;BME280;11289;52.524;13.694;2023-05-29T12:15:13;101449.91;;;28.98;22.27
22241;BME280;11289;52.524;13.694;2023-05-29T12:17:40;101454.53;;;28.92;21.99
22241;BME280;11289;52.524;13.694;2023-05-29T12:20:06;101461.16;;;29.29;21.81
22241;BME280;11289;52.524;13.694;2023-05-29T12:22:36;101456.44;;;29.39;21.18
22241;BME280;11289;52.524;13.694;2023-05-29T12:25:06;101451.22;;;28.94;22.29
22241;BME280;11289;52.524;13.694;2023-05-29T12:27:33;101460.53;;;29.18;22.53
22241;BME280;11289;52.524;13.694;2023-05-29T12:30:11;101453.09;;;29.61;22.40
22241;BME280;11289;52.524;13.694;2023-05-29T12:32:42;101466.63;;;29.77;22.00
22241;BME280;11289;52.524;13.694;2023-05-29T12:35:16;101452.91;;;30.04;21.54
22241;BME280;11289;52.524;13.694;2023-05-29T12:37:53;101460.88;;;30.46;20.95
22241;BME280;11289;52.524;13.694;2023-05-29T12:40:25;101452.28;;;30.46;20.94
22241;BME280;11289;52.524;13.694;2023-05-29T12:42:56;101453.56;;;30.75;20.68
22241;BME280;11289;52.524;13.694;2023-05-29T12:45:24;101451.47;;;30.46;20.91
22241;BME280;11289;52.524;13.694;2023-05-29T12:48:01;101452.63;;;30.32;21.21
22241;BME280;11289;52.524;13.694;2023-05-29T12:50:30;101459.31;;;30.25;21.27
22241;BME280;11289;52.524;13.694;2023-05-29T12:55:28;101459.88;;;29.30;22.95
22241;BME280;11289;52.524;13.694;2023-05-29T12:57:55;101454.25;;;29.27;22.89
22241;BME280;11289;52.524;13.694;2023-05-29T13:00:25;101456.38;;;29.03;22.33
22241;BME280;11289;52.524;13.694;2023-05-29T13:02:51;101439.81;;;28.50;22.79
22241;BME280;11289;52.524;13.694;2023-05-29T13:05:17;101455.34;;;28.25;23.69
22241;BME280;11289;52.524;13.694;2023-05-29T13:07:47;101447.13;;;28.27;23.62
22241;BME280;11289;52.524;13.694;2023-05-29T13:10:14;101425.91;;;28.05;24.20
22241;BME280;11289;52.524;13.694;2023-05-29T13:12:44;101438.56;;;27.76;23.98
22241;BME280;11289;52.524;13.694;2023-05-29T13:15:13;101431.31;;;27.99;24.64
22241;BME280;11289;52.524;13.694;2023-05-29T13:17:40;101424.56;;;28.37;24.14